createdAt,value
2023-04-02T00:01:18.466Z,98362.94
2023-04-02T00:03:45.428Z,98361.19
2023-04-02T00:06:32.951Z,98364.66
2023-04-02T00:09:15.273Z,98361.13
2023-04-02T00:11:48.741Z,98361.97
2023-04-02T00:14:36.862Z,98365.41
2023-04-02T00:17:06.188Z,98373.22
2023-04-02T00:19:41.942Z,98369.75
2023-04-02T00:22:16.098Z,98366.25
2023-04-02T00:24:43.292Z,98367.13
2023-04-02T00:27:12.973Z,98360.22
2023-04-02T00:29:48.058Z,98363.66
2023-04-02T00:32:23.122Z,98365.41
2023-04-02T00:34:50.822Z,98360.22
2023-04-02T00:37:28.318Z,98355.94
2023-04-02T00:40:07.356Z,98363.72
2023-04-02T00:42:36.215Z,98366.28
2023-04-02T00:45:04.393Z,98350.69
2023-04-02T00:47:37.751Z,98364.47
2023-04-02T00:50:14.642Z,98364.41
2023-04-02T00:52:44.794Z,98359.84
2023-04-02T00:55:21.764Z,98360.56
2023-04-02T00:57:50.644Z,98358.06
2023-04-02T01:03:13.369Z,98368.47
2023-04-02T01:05:42.812Z,98359.84
2023-04-02T01:08:22.527Z,98359.00
2023-04-02T01:11:07.693Z,98353.03
2023-04-02T01:13:43.550Z,98356.50
2023-04-02T01:16:47.623Z,98355.69
2023-04-02T01:19:34.401Z,98359.16
2023-04-02T01:22:42.799Z,98359.19
2023-04-02T01:25:18.071Z,98364.34
2023-04-02T01:27:57.985Z,98361.72
2023-04-02T01:30:25.842Z,98363.41
2023-04-02T01:32:54.759Z,98366.84
2023-04-02T01:35:22.972Z,98358.22
2023-04-02T01:38:03.497Z,98359.13
2023-04-02T01:40:52.397Z,98359.13
2023-04-02T01:43:49.379Z,98363.41
2023-04-02T01:46:32.253Z,98358.22
2023-04-02T01:49:10.779Z,98359.97
2023-04-02T01:51:43.770Z,98351.31
2023-04-02T01:54:13.311Z,98359.91
2023-04-02T01:56:41.611Z,98353.84
2023-04-02T01:59:09.217Z,98353.88
2023-04-02T02:01:48.686Z,98358.16
2023-04-02T02:04:17.478Z,98358.16
2023-04-02T02:06:45.901Z,98356.44
2023-04-02T02:09:23.423Z,98363.34
2023-04-02T02:11:51.770Z,98359.00
2023-04-02T02:14:27.800Z,98360.72
2023-04-02T02:17:01.636Z,98362.47
2023-04-02T02:19:57.599Z,98355.56
2023-04-02T02:22:37.732Z,98346.97
2023-04-02T02:25:11.451Z,98361.63
2023-04-02T02:27:49.854Z,98366.84
2023-04-02T02:30:19.607Z,98363.44
2023-04-02T02:33:14.557Z,98360.00
2023-04-02T02:35:56.763Z,98359.16
2023-04-02T02:38:35.324Z,98380.75
2023-04-02T02:41:08.034Z,98361.75
2023-04-02T02:43:39.298Z,98375.59
2023-04-02T02:46:08.686Z,98380.78
2023-04-02T02:48:39.617Z,98387.72
2023-04-02T02:51:11.733Z,98392.78
2023-04-02T02:53:55.630Z,98385.91
2023-04-02T02:56:24.175Z,98394.53
2023-04-02T02:58:53.046Z,98389.31
2023-04-02T03:01:20.276Z,98382.44
2023-04-02T03:03:52.207Z,98388.50
2023-04-02T03:06:21.036Z,98388.53
2023-04-02T03:08:53.957Z,98397.19
2023-04-02T03:11:36.116Z,98394.63
2023-04-02T03:14:15.094Z,98384.19
2023-04-02T03:16:48.569Z,98398.81
2023-04-02T03:19:35.238Z,98404.03
2023-04-02T03:22:30.074Z,98397.13
2023-04-02T03:25:16.585Z,98402.28
2023-04-02T03:27:48.032Z,98396.22
2023-04-02T03:30:47.628Z,98403.94
2023-04-02T03:33:22.237Z,98418.59
2023-04-02T03:36:13.569Z,98414.25
2023-04-02T03:39:10.336Z,98417.69
2023-04-02T03:41:57.577Z,98409.84
2023-04-02T03:44:28.066Z,98411.53
2023-04-02T03:47:36.736Z,98424.50
2023-04-02T03:50:26.368Z,98420.19
2023-04-02T03:52:53.251Z,98425.28
2023-04-02T03:55:23.357Z,98428.75
2023-04-02T03:57:57.248Z,98424.41
2023-04-02T04:00:36.121Z,98432.97
2023-04-02T04:03:16.689Z,98429.44
2023-04-02T04:05:55.946Z,98437.19
2023-04-02T04:08:27.557Z,98437.97
2023-04-02T04:10:58.842Z,98449.28
2023-04-02T04:13:39.097Z,98444.94
2023-04-02T04:16:14.729Z,98446.81
2023-04-02T04:18:49.878Z,98453.72
2023-04-02T04:21:31.248Z,98459.66
2023-04-02T04:24:06.137Z,98462.16
2023-04-02T04:26:55.206Z,98465.50
2023-04-02T04:29:46.946Z,98466.31
2023-04-02T04:32:27.454Z,98476.66
2023-04-02T04:35:37.047Z,98474.84
2023-04-02T04:38:14.580Z,98482.59
2023-04-02T04:41:05.414Z,98487.13
2023-04-02T04:43:41.280Z,98491.69
2023-04-02T04:46:23.219Z,98491.03
2023-04-02T04:49:21.168Z,98496.38
2023-04-02T04:52:09.538Z,98501.78
2023-04-02T04:54:39.601Z,98486.38
2023-04-02T04:57:18.053Z,98494.34
2023-04-02T04:59:52.671Z,98492.63
2023-04-02T05:02:33.573Z,98505.63
2023-04-02T05:05:02.534Z,98492.69
2023-04-02T05:07:35.314Z,98507.38
2023-04-02T05:10:16.500Z,98499.53
2023-04-02T05:12:54.993Z,98506.41
2023-04-02T05:15:42.342Z,98508.13
2023-04-02T05:18:18.379Z,98507.28
2023-04-02T05:20:59.275Z,98508.78
2023-04-02T05:23:30.117Z,98514.81
2023-04-02T05:26:06.731Z,98516.19
2023-04-02T05:28:40.554Z,98516.13
2023-04-02T05:31:49.411Z,98511.28
2023-04-02T05:34:25.281Z,98512.00
2023-04-02T05:36:52.144Z,98517.53
2023-04-02T05:39:23.097Z,98522.72
2023-04-02T05:42:01.280Z,98518.75
2023-04-02T05:44:36.345Z,98514.75
2023-04-02T05:47:04.610Z,98517.56
2023-04-02T05:49:40.623Z,98509.84
2023-04-02T05:52:15.353Z,98523.28
2023-04-02T05:54:52.587Z,98518.03
2023-04-02T05:57:35.833Z,98517.75
2023-04-02T06:00:18.025Z,98521.97
2023-04-02T06:02:53.836Z,98519.03
2023-04-02T06:05:29.034Z,98516.06
2023-04-02T06:08:08.685Z,98518.03
2023-04-02T06:10:45.686Z,98530.25
2023-04-02T06:13:18.346Z,98527.00
2023-04-02T06:15:47.245Z,98518.78
2023-04-02T06:18:24.152Z,98525.69
2023-04-02T06:20:52.066Z,98519.13
2023-04-02T06:23:24.877Z,98516.91
2023-04-02T06:25:54.502Z,98523.41
2023-04-02T06:28:27.224Z,98510.91
2023-04-02T06:30:59.837Z,98516.81
2023-04-02T06:33:26.927Z,98500.06
2023-04-02T06:35:56.317Z,98507.13
2023-04-02T06:38:29.020Z,98512.09
2023-04-02T06:41:02.954Z,98508.19
2023-04-02T06:43:39.611Z,98514.75
2023-04-02T06:46:14.057Z,98507.03
2023-04-02T06:48:42.518Z,98503.66
2023-04-02T06:51:14.453Z,98510.28
2023-04-02T06:53:47.780Z,98520.25
2023-04-02T06:56:27.960Z,98510.69
2023-04-02T06:58:55.079Z,98524.56
2023-04-02T07:01:29.608Z,98528.03
2023-04-02T07:03:57.984Z,98527.56
2023-04-02T07:06:25.057Z,98521.44
2023-04-02T07:08:52.036Z,98522.44
2023-04-02T07:11:22.534Z,98531.44
2023-04-02T07:13:51.414Z,98529.34
2023-04-02T07:16:21.359Z,98526.47
2023-04-02T07:18:49.205Z,98538.16
2023-04-02T07:21:16.039Z,98537.13
2023-04-02T07:23:42.831Z,98538.78
2023-04-02T07:26:15.058Z,98541.31
2023-04-02T07:28:42.205Z,98541.66
2023-04-02T07:31:28.881Z,98549.34
2023-04-02T07:33:59.989Z,98541.03
2023-04-02T07:36:29.449Z,98547.09
2023-04-02T07:38:56.697Z,98550.53
2023-04-02T07:41:23.895Z,98548.84
2023-04-02T07:43:50.872Z,98556.94
2023-04-02T07:46:20.378Z,98543.50
2023-04-02T07:48:47.779Z,98543.16
2023-04-02T07:51:20.737Z,98553.53
2023-04-02T07:53:50.602Z,98553.31
2023-04-02T07:56:19.746Z,98545.56
2023-04-02T07:58:47.050Z,98552.47
2023-04-02T08:01:26.072Z,98551.09
2023-04-02T08:03:54.968Z,98554.38
2023-04-02T08:06:22.852Z,98555.41
2023-04-02T08:08:50.461Z,98547.38
2023-04-02T08:11:17.452Z,98553.88
2023-04-02T08:13:44.404Z,98553.91
2023-04-02T08:16:11.916Z,98559.50
2023-04-02T08:18:39.051Z,98555.97
2023-04-02T08:21:08.905Z,98547.34
2023-04-02T08:23:36.329Z,98554.91
2023-04-02T08:26:03.822Z,98560.16
2023-04-02T08:28:30.669Z,98559.31
2023-04-02T08:30:57.989Z,98566.00
2023-04-02T08:33:25.000Z,98570.13
2023-04-02T08:35:52.009Z,98566.06
2023-04-02T08:38:21.998Z,98565.16
2023-04-02T08:40:56.730Z,98572.47
2023-04-02T08:44:00.741Z,98573.53
2023-04-02T08:46:42.381Z,98567.91
2023-04-02T08:49:16.395Z,98576.16
2023-04-02T08:51:45.241Z,98570.69
2023-04-02T08:54:18.685Z,98574.78
2023-04-02T08:57:04.454Z,98580.81
2023-04-02T08:59:52.416Z,98573.13
2023-04-02T09:02:41.128Z,98583.84
2023-04-02T09:05:17.947Z,98585.00
2023-04-02T09:07:47.407Z,98579.22
2023-04-02T09:10:16.859Z,98579.31
2023-04-02T09:12:47.365Z,98588.97
2023-04-02T09:15:14.104Z,98583.31
2023-04-02T09:17:53.091Z,98586.47
2023-04-02T09:20:26.611Z,98578.56
2023-04-02T09:22:54.413Z,98580.72
2023-04-02T09:25:27.784Z,98585.06
2023-04-02T09:27:57.295Z,98583.50
2023-04-02T09:30:30.039Z,98581.03
2023-04-02T09:32:59.022Z,98574.59
2023-04-02T09:35:28.817Z,98577.16
2023-04-02T09:38:07.550Z,98578.31
2023-04-02T09:40:56.488Z,98581.69
2023-04-02T09:43:28.684Z,98580.44
2023-04-02T09:46:02.163Z,98574.69
2023-04-02T09:48:33.838Z,98565.59
2023-04-02T09:51:25.191Z,98574.38
2023-04-02T09:54:08.590Z,98577.78
2023-04-02T09:56:37.372Z,98576.59
2023-04-02T09:59:13.120Z,98583.59
2023-04-02T10:01:41.768Z,98577.03
2023-04-02T10:04:38.713Z,98583.91
2023-04-02T10:07:07.190Z,98584.34
2023-04-02T10:09:37.197Z,98574.69
2023-04-02T10:12:12.918Z,98588.19
2023-04-02T10:14:48.517Z,98574.13
2023-04-02T10:17:23.970Z,98568.09
2023-04-02T10:20:06.306Z,98581.66
2023-04-02T10:22:33.320Z,98578.00
2023-04-02T10:25:00.197Z,98578.00
2023-04-02T10:27:31.204Z,98580.34
2023-04-02T10:30:13.064Z,98585.09
2023-04-02T10:33:03.741Z,98584.81
2023-04-02T10:36:05.877Z,98578.50
2023-04-02T10:38:42.699Z,98579.50
2023-04-02T10:41:34.225Z,98573.63
2023-04-02T10:44:19.484Z,98574.16
2023-04-02T10:47:02.850Z,98567.72
2023-04-02T10:49:48.276Z,98570.75
2023-04-02T10:52:40.546Z,98564.84
2023-04-02T10:55:26.830Z,98570.34
2023-04-02T10:57:57.406Z,98570.97
2023-04-02T11:00:37.267Z,98577.88
2023-04-02T11:03:20.449Z,98573.16
2023-04-02T11:05:48.850Z,98576.78
2023-04-02T11:08:32.052Z,98577.94
2023-04-02T11:11:10.124Z,98573.59
2023-04-02T11:13:43.029Z,98579.34
2023-04-02T11:16:15.687Z,98577.09
2023-04-02T11:18:44.993Z,98576.34
2023-04-02T11:21:57.291Z,98579.44
2023-04-02T11:24:34.147Z,98576.59
2023-04-02T11:27:25.609Z,98565.75
2023-04-02T11:30:17.097Z,98567.19
2023-04-02T11:32:49.916Z,98562.06
2023-04-02T11:35:32.152Z,98567.97
2023-04-02T11:38:11.022Z,98561.84
2023-04-02T11:40:46.853Z,98569.25
2023-04-02T11:43:36.616Z,98570.09
2023-04-02T11:46:29.361Z,98564.66
2023-04-02T11:49:34.613Z,98557.19
2023-04-02T11:52:11.452Z,98544.09
2023-04-02T11:54:39.374Z,98554.44
2023-04-02T11:57:43.972Z,98557.69
2023-04-02T12:01:15.928Z,98555.59
2023-04-02T12:03:51.810Z,98554.38
2023-04-02T12:06:39.929Z,98549.41
2023-04-02T12:09:29.520Z,98560.78
2023-04-02T12:11:59.868Z,98549.53
2023-04-02T12:14:35.766Z,98547.06
2023-04-02T12:17:15.540Z,98549.91
2023-04-02T12:19:48.882Z,98546.94
2023-04-02T12:22:28.879Z,98549.47
2023-04-02T12:25:00.898Z,98540.59
2023-04-02T12:27:30.070Z,98538.19
2023-04-02T12:30:12.232Z,98527.00
2023-04-02T12:32:39.422Z,98520.00
2023-04-02T12:35:08.490Z,98511.31
2023-04-02T12:37:35.742Z,98515.09
2023-04-02T12:40:16.459Z,98514.84
2023-04-02T12:42:47.590Z,98511.44
2023-04-02T12:45:31.359Z,98518.38
2023-04-02T12:48:02.187Z,98513.00
2023-04-02T12:50:29.511Z,98512.13
2023-04-02T12:52:59.097Z,98514.03
2023-04-02T12:55:27.676Z,98506.03
2023-04-02T12:57:59.964Z,98511.84
2023-04-02T13:00:32.254Z,98510.38
2023-04-02T13:03:03.142Z,98507.00
2023-04-02T13:05:36.506Z,98508.72
2023-04-02T13:08:04.641Z,98503.50
2023-04-02T13:10:32.101Z,98500.44
2023-04-02T13:13:01.135Z,98500.78
2023-04-02T13:15:37.069Z,98504.47
2023-04-02T13:18:13.320Z,98499.50
2023-04-02T13:20:42.047Z,98508.66
2023-04-02T13:23:27.745Z,98513.03
2023-04-02T13:25:55.529Z,98502.84
2023-04-02T13:28:23.246Z,98521.22
2023-04-02T13:30:50.670Z,98511.56
2023-04-02T13:33:18.041Z,98514.66
2023-04-02T13:35:45.680Z,98520.22
2023-04-02T13:38:13.062Z,98525.66
2023-04-02T13:40:40.296Z,98518.66
2023-04-02T13:43:16.207Z,98516.72
2023-04-02T13:45:43.367Z,98523.78
2023-04-02T13:48:14.957Z,98524.25
2023-04-02T13:50:42.769Z,98523.88
2023-04-02T13:53:21.333Z,98517.59
2023-04-02T13:55:49.186Z,98515.63
2023-04-02T13:58:16.289Z,98511.44
2023-04-02T14:00:43.765Z,98514.22
2023-04-02T14:03:16.740Z,98511.44
2023-04-02T14:05:55.600Z,98510.06
2023-04-02T14:08:30.562Z,98514.00
2023-04-02T14:11:22.330Z,98512.44
2023-04-02T14:14:33.675Z,98519.94
2023-04-02T14:17:18.508Z,98512.06
2023-04-02T14:20:04.287Z,98521.22
2023-04-02T14:22:51.069Z,98510.53
2023-04-02T14:25:40.082Z,98505.25
2023-04-02T14:28:29.928Z,98507.00
2023-04-02T14:31:15.678Z,98517.81
2023-04-02T14:33:57.606Z,98509.81
2023-04-02T14:36:29.149Z,98508.47
2023-04-02T14:39:03.355Z,98504.72
2023-04-02T14:41:38.077Z,98488.34
2023-04-02T14:44:08.046Z,98504.44
2023-04-02T14:46:38.125Z,98491.97
2023-04-02T14:49:16.902Z,98492.44
2023-04-02T14:51:51.776Z,98494.59
2023-04-02T14:54:55.286Z,98492.09
2023-04-02T14:57:55.701Z,98491.50
2023-04-02T15:00:38.300Z,98494.75
2023-04-02T15:03:08.655Z,98506.03
2023-04-02T15:05:50.899Z,98500.28
2023-04-02T15:08:48.320Z,98498.38
2023-04-02T15:11:37.673Z,98500.66
2023-04-02T15:14:21.664Z,98499.75
2023-04-02T15:16:50.481Z,98490.88
2023-04-02T15:19:25.566Z,98500.34
2023-04-02T15:22:15.415Z,98505.13
2023-04-02T15:25:17.990Z,98505.09
2023-04-02T15:28:23.063Z,98506.78
2023-04-02T15:30:54.670Z,98499.28
2023-04-02T15:33:28.817Z,98503.34
2023-04-02T15:36:07.961Z,98501.97
2023-04-02T15:38:41.280Z,98511.66
2023-04-02T15:41:23.604Z,98504.06
2023-04-02T15:44:13.526Z,98514.28
2023-04-02T15:46:56.329Z,98521.56
2023-04-02T15:49:36.229Z,98512.06
2023-04-02T15:52:34.783Z,98525.31
2023-04-02T15:55:36.620Z,98527.22
2023-04-02T15:58:16.130Z,98526.38
2023-04-02T16:01:02.567Z,98531.66
2023-04-02T16:04:00.655Z,98530.13
2023-04-02T16:07:00.950Z,98528.63
2023-04-02T16:09:37.783Z,98535.69
2023-04-02T16:12:21.308Z,98533.16
2023-04-02T16:14:49.621Z,98533.22
2023-04-02T16:17:28.579Z,98543.75
2023-04-02T16:20:18.876Z,98538.59
2023-04-02T16:23:00.468Z,98542.19
2023-04-02T16:25:34.531Z,98545.50
2023-04-02T16:28:21.906Z,98554.28
2023-04-02T16:31:16.292Z,98542.25
2023-04-02T16:34:06.092Z,98558.75
2023-04-02T16:36:58.273Z,98560.94
2023-04-02T16:39:41.561Z,98565.41
2023-04-02T16:42:36.848Z,98576.09
2023-04-02T16:45:12.320Z,98577.06
2023-04-02T16:47:42.163Z,98578.00
2023-04-02T16:50:31.114Z,98577.97
2023-04-02T16:53:14.316Z,98585.06
2023-04-02T16:56:02.654Z,98585.03
2023-04-02T16:58:41.500Z,98587.50
2023-04-02T17:01:17.226Z,98591.91
2023-04-02T17:04:02.516Z,98601.63
2023-04-02T17:06:29.422Z,98603.50
2023-04-02T17:09:20.287Z,98596.75
2023-04-02T17:11:55.683Z,98601.13
2023-04-02T17:19:00.856Z,98608.28
2023-04-02T17:21:52.479Z,98614.44
2023-04-02T17:25:03.651Z,98615.47
2023-04-02T17:28:17.130Z,98611.03
2023-04-02T17:30:54.790Z,98615.56
2023-04-02T17:34:10.044Z,98619.06
2023-04-02T17:36:47.951Z,98620.06
2023-04-02T17:39:31.145Z,98623.59
2023-04-02T17:42:35.292Z,98625.41
2023-04-02T17:45:16.450Z,98628.06
2023-04-02T17:48:33.146Z,98630.75
2023-04-02T17:51:22.129Z,98637.75
2023-04-02T17:54:04.724Z,98636.09
2023-04-02T17:56:40.132Z,98638.75
2023-04-02T17:59:49.738Z,98649.22
2023-04-02T18:02:36.651Z,98646.63
2023-04-02T18:05:25.198Z,98669.22
2023-04-02T18:08:12.637Z,98665.03
2023-04-02T18:10:51.424Z,98668.56
2023-04-02T18:13:35.923Z,98668.56
2023-04-02T18:16:14.712Z,98666.00
2023-04-02T18:18:46.618Z,98669.50
2023-04-02T18:21:17.087Z,98668.72
2023-04-02T18:24:23.661Z,98676.59
2023-04-02T18:27:49.270Z,98677.56
2023-04-02T18:30:22.348Z,98683.69
2023-04-02T18:33:37.567Z,98682.00
2023-04-02T18:36:27.851Z,98686.38
2023-04-02T18:39:03.051Z,98694.16
2023-04-02T18:41:36.337Z,98689.03
2023-04-02T18:44:19.534Z,98689.00
2023-04-02T18:46:55.281Z,98689.00
2023-04-02T18:49:43.882Z,98699.44
2023-04-02T18:52:17.180Z,98699.44
2023-04-02T18:54:49.924Z,98696.84
2023-04-02T18:57:22.715Z,98711.56
2023-04-02T18:59:55.338Z,98709.88
2023-04-02T19:02:37.647Z,98704.63
2023-04-02T19:05:21.860Z,98705.50
2023-04-02T19:07:52.631Z,98715.03
2023-04-02T19:10:31.644Z,98722.81
2023-04-02T19:12:58.542Z,98712.44
2023-04-02T19:16:03.607Z,98708.94
2023-04-02T19:19:09.737Z,98715.03
2023-04-02T19:21:53.319Z,98717.59
2023-04-02T19:24:53.551Z,98716.78
2023-04-02T19:27:39.538Z,98721.09
2023-04-02T19:30:30.747Z,98723.69
2023-04-02T19:33:21.558Z,98721.09
2023-04-02T19:35:57.611Z,98734.97
2023-04-02T19:38:29.901Z,98730.59
2023-04-02T19:41:27.465Z,98728.03
2023-04-02T19:43:56.112Z,98727.16
2023-04-02T19:46:25.570Z,98721.09
2023-04-02T19:49:04.240Z,98723.69
2023-04-02T19:51:31.307Z,98735.81
2023-04-02T19:53:58.232Z,98727.16
2023-04-02T19:56:25.268Z,98727.16
2023-04-02T19:58:52.299Z,98738.41
2023-04-02T20:01:19.463Z,98741.03
2023-04-02T20:03:46.852Z,98747.94
2023-04-02T20:06:13.844Z,98750.53
2023-04-02T20:08:41.052Z,98756.56
2023-04-02T20:11:08.230Z,98758.28
2023-04-02T20:13:35.925Z,98757.41
2023-04-02T20:16:05.018Z,98743.56
2023-04-02T20:18:32.766Z,98762.59
2023-04-02T20:21:04.846Z,98761.75
2023-04-02T20:23:34.340Z,98754.81
2023-04-02T20:26:02.960Z,98766.03
2023-04-02T20:28:32.182Z,98767.78
2023-04-02T20:31:08.896Z,98769.53
2023-04-02T20:33:36.851Z,98772.09
2023-04-02T20:36:09.443Z,98769.44
2023-04-02T20:38:37.041Z,98772.03
2023-04-02T20:41:06.272Z,98759.97
2023-04-02T20:43:34.065Z,98759.94
2023-04-02T20:46:04.984Z,98766.88
2023-04-02T20:48:32.888Z,98756.47
2023-04-02T20:51:02.288Z,98762.56
2023-04-02T20:53:31.441Z,98753.06
2023-04-02T20:56:07.446Z,98755.63
2023-04-02T20:58:36.130Z,98761.72
2023-04-02T21:01:11.310Z,98754.78
2023-04-02T21:03:40.084Z,98749.56
2023-04-02T21:06:13.281Z,98750.47
2023-04-02T21:08:40.363Z,98753.91
2023-04-02T21:11:09.076Z,98760.88
2023-04-02T21:13:37.371Z,98758.28
2023-04-02T21:16:12.367Z,98754.81
2023-04-02T21:18:39.364Z,98762.59
2023-04-02T21:21:07.927Z,98762.59
2023-04-02T21:23:35.121Z,98761.72
2023-04-02T21:26:06.378Z,98753.06
2023-04-02T21:28:34.915Z,98759.13
2023-04-02T21:31:10.967Z,98769.50
2023-04-02T21:33:46.918Z,98765.16
2023-04-02T21:36:40.282Z,98760.81
2023-04-02T21:39:10.813Z,98774.69
2023-04-02T21:41:43.112Z,98770.28
2023-04-02T21:44:14.842Z,98773.72
2023-04-02T21:46:43.212Z,98771.94
2023-04-02T21:49:16.669Z,98769.25
2023-04-02T21:51:45.838Z,98779.63
2023-04-02T21:54:13.931Z,98770.09
2023-04-02T21:56:43.295Z,98775.38
2023-04-02T21:59:12.233Z,98784.03
2023-04-02T22:01:45.184Z,98777.13
2023-04-02T22:04:18.342Z,98777.16
2023-04-02T22:06:46.055Z,98790.97
2023-04-02T22:09:16.087Z,98774.56
2023-04-02T22:11:46.165Z,98788.41
2023-04-02T22:14:13.740Z,98783.22
2023-04-02T22:16:41.349Z,98790.16
2023-04-02T22:19:11.909Z,98790.22
2023-04-02T22:21:40.050Z,98786.69
2023-04-02T22:24:09.697Z,98789.28
2023-04-02T22:26:37.435Z,98786.69
2023-04-02T22:29:05.611Z,98782.44
2023-04-02T22:31:35.497Z,98778.06
2023-04-02T22:34:03.567Z,98772.03
2023-04-02T22:36:32.668Z,98773.78
2023-04-02T22:39:01.133Z,98768.59
2023-04-02T22:41:32.253Z,98763.44
2023-04-02T22:44:00.606Z,98779.00
2023-04-02T22:46:29.187Z,98781.59
2023-04-02T22:48:56.451Z,98772.94
2023-04-02T22:51:25.510Z,98773.84
2023-04-02T22:53:55.139Z,98772.09
2023-04-02T22:56:28.918Z,98773.00
2023-04-02T22:58:55.926Z,98779.84
2023-04-02T23:01:26.656Z,98772.00
2023-04-02T23:03:55.676Z,98771.13
2023-04-02T23:06:24.012Z,98757.38
2023-04-02T23:08:51.710Z,98759.06
2023-04-02T23:11:27.719Z,98766.88
2023-04-02T23:13:56.876Z,98761.66
2023-04-02T23:16:27.055Z,98756.47
2023-04-02T23:18:55.122Z,98762.56
2023-04-02T23:21:22.941Z,98765.13
2023-04-02T23:23:51.103Z,98752.16
2023-04-02T23:26:21.969Z,98746.09
2023-04-02T23:28:50.491Z,98736.56
2023-04-02T23:31:20.654Z,98757.34
2023-04-02T23:33:47.709Z,98758.19
2023-04-02T23:36:32.604Z,98752.13
2023-04-02T23:39:09.610Z,98749.56
2023-04-02T23:41:39.265Z,98756.53
2023-04-02T23:44:07.096Z,98743.56
2023-04-02T23:46:35.494Z,98746.97
2023-04-02T23:49:02.886Z,98747.84
2023-04-02T23:51:34.056Z,98743.50
2023-04-02T23:54:02.214Z,98745.25
2023-04-02T23:56:29.354Z,98742.63
2023-04-02T23:58:56.825Z,98733.09
